Time;durP1;ratioP1;P1;durP2;ratioP2;P2;SDS_P1;SDS_P2;PMS_P1;PMS_P2;Temp;Humidity;BMP_temperature;BMP_pressure;BME280_temperature;BME280_humidity;BME280_pressure;Samples;Min_cycle;Max_cycle;Signal;HPM_P1;HPM_P2
2024/01/24 00:01:21;;;;;;;13.57;4.62;;;;;;;-1.22;100.00;100012.19;4484913;32;20084;-75
2024/01/24 00:03:49;;;;;;;7.45;4.00;;;;;;;-1.23;100.00;100004.50;4484691;31;20175;-75
2024/01/24 00:06:17;;;;;;;9.80;4.97;;;;;;;-1.30;100.00;100009.75;4484956;31;20152;-75
2024/01/24 00:08:45;;;;;;;14.23;4.25;;;;;;;-1.38;100.00;100019.34;4484734;31;20119;-75
2024/01/24 00:11:13;;;;;;;13.60;5.55;;;;;;;-1.41;100.00;100019.41;4484781;32;20122;-75
2024/01/24 00:13:40;;;;;;;12.07;4.90;;;;;;;-1.43;100.00;100016.03;4484717;31;20139;-75
2024/01/24 00:16:08;;;;;;;10.32;3.67;;;;;;;-1.57;100.00;100028.31;4484888;31;20537;-75
2024/01/24 00:18:36;;;;;;;12.95;4.22;;;;;;;-1.63;100.00;100030.09;4490889;31;20134;-75
2024/01/24 00:21:03;;;;;;;8.23;4.05;;;;;;;-1.76;100.00;100027.81;4500837;31;20107;-75
2024/01/24 00:23:32;;;;;;;11.32;4.68;;;;;;;-1.86;100.00;100024.53;4500303;31;20092;-75
2024/01/24 00:25:59;;;;;;;13.77;6.28;;;;;;;-1.89;100.00;100025.47;4500808;31;20115;-75
2024/01/24 00:28:27;;;;;;;21.37;9.85;;;;;;;-1.94;100.00;100023.84;4500654;31;20166;-75
2024/01/24 00:30:55;;;;;;;24.42;9.10;;;;;;;-1.94;100.00;100018.72;4490098;31;20124;-75
2024/01/24 00:33:25;;;;;;;18.83;9.45;;;;;;;-1.98;100.00;100026.47;4483412;32;20572;-75
2024/01/24 00:35:53;;;;;;;19.08;9.00;;;;;;;-2.02;100.00;100014.53;4484311;31;20118;-75
2024/01/24 00:38:22;;;;;;;18.08;8.27;;;;;;;-2.13;100.00;100019.03;4484585;31;20117;-75
2024/01/24 00:40:51;;;;;;;12.77;5.45;;;;;;;-2.08;100.00;100006.13;4484542;32;20156;-75
2024/01/24 00:43:20;;;;;;;16.48;5.78;;;;;;;-2.05;100.00;99996.62;4484460;31;20106;-75
2024/01/24 00:45:47;;;;;;;14.27;4.78;;;;;;;-1.95;100.00;99997.31;4484381;32;20148;-75
2024/01/24 00:48:15;;;;;;;11.07;4.93;;;;;;;-1.82;100.00;99998.78;4484510;31;20077;-75
2024/01/24 00:50:43;;;;;;;6.57;4.30;;;;;;;-1.78;100.00;100007.28;4484566;31;20137;-75
2024/01/24 00:53:15;;;;;;;11.02;4.30;;;;;;;-1.74;100.00;100006.34;4484407;31;20481;-75
2024/01/24 00:55:43;;;;;;;13.73;4.18;;;;;;;-1.80;100.00;100012.44;4483426;32;20119;-75
2024/01/24 00:58:13;;;;;;;10.18;4.28;;;;;;;-1.87;100.00;100016.00;4484305;31;20137;-75
2024/01/24 01:00:40;;;;;;;12.18;4.97;;;;;;;-1.89;100.00;100014.31;4484603;31;20096;-75
2024/01/24 01:03:08;;;;;;;11.52;4.15;;;;;;;-2.02;100.00;100009.41;4484225;31;20171;-75
2024/01/24 01:05:37;;;;;;;13.73;4.72;;;;;;;-2.07;100.00;100000.94;4484631;31;20195;-75
2024/01/24 01:08:05;;;;;;;11.02;4.95;;;;;;;-1.91;100.00;99996.38;4484246;31;20586;-75
2024/01/24 01:10:33;;;;;;;10.80;5.80;;;;;;;-1.89;100.00;100002.34;4484598;31;20085;-75
2024/01/24 01:13:01;;;;;;;14.35;5.45;;;;;;;-1.73;100.00;99990.03;4484132;31;20089;-75
2024/01/24 01:15:28;;;;;;;15.60;6.57;;;;;;;-1.80;100.00;99986.75;4484361;31;20156;-75
2024/01/24 01:17:56;;;;;;;14.02;7.18;;;;;;;-1.88;100.00;99982.62;4485480;31;20499;-75
2024/01/24 01:20:29;;;;;;;17.50;7.70;;;;;;;-1.93;100.00;99977.59;4500028;31;20088;-75
2024/01/24 01:22:57;;;;;;;13.50;6.05;;;;;;;-1.97;100.00;99978.50;4499840;31;20104;-75
2024/01/24 01:25:24;;;;;;;13.18;7.35;;;;;;;-1.94;100.00;99960.47;4499879;31;20510;-75
2024/01/24 01:27:52;;;;;;;16.75;7.97;;;;;;;-1.89;100.00;99950.13;4500090;31;20114;-75
2024/01/24 01:30:20;;;;;;;11.63;6.97;;;;;;;-1.90;100.00;99949.28;4493361;31;20158;-75
2024/01/24 01:32:48;;;;;;;11.50;5.37;;;;;;;-1.88;100.00;99950.09;4484091;31;20109;-75
2024/01/24 01:35:16;;;;;;;11.12;5.50;;;;;;;-1.90;100.00;99946.72;4483664;31;20122;-75
2024/01/24 01:37:44;;;;;;;11.77;4.35;;;;;;;-1.88;100.00;99952.66;4483824;31;20120;-75
2024/01/24 01:40:11;;;;;;;9.48;4.37;;;;;;;-1.84;100.00;99954.28;4484138;31;20108;-75
2024/01/24 01:42:44;;;;;;;9.70;4.10;;;;;;;-1.80;100.00;99950.81;4484201;31;20506;-75
2024/01/24 01:45:12;;;;;;;10.10;4.53;;;;;;;-1.80;100.00;99947.41;4484321;31;20084;-75
2024/01/24 01:47:39;;;;;;;10.60;4.60;;;;;;;-1.87;100.00;99940.69;4485944;31;20100;-75
2024/01/24 01:50:10;;;;;;;10.82;3.92;;;;;;;-1.99;100.00;99919.47;4485967;31;20122;-75
2024/01/24 01:52:41;;;;;;;9.43;4.40;;;;;;;-1.98;100.00;99918.63;4485968;31;20099;-75
2024/01/24 01:55:10;;;;;;;8.80;4.07;;;;;;;-2.07;100.00;99912.81;4486113;31;20133;-76
2024/01/24 01:57:42;;;;;;;7.12;3.67;;;;;;;-2.12;100.00;99917.19;4484969;32;20104;-76
2024/01/24 02:00:10;;;;;;;9.02;3.92;;;;;;;-2.10;100.00;99913.72;4486203;31;20084;-76
2024/01/24 02:02:38;;;;;;;9.27;3.40;;;;;;;-2.15;100.00;99916.38;4485723;31;20161;-76
2024/01/24 02:05:06;;;;;;;9.07;3.65;;;;;;;-2.17;100.00;99914.69;4485658;31;20566;-76
2024/01/24 02:07:33;;;;;;;10.32;4.18;;;;;;;-2.25;100.00;99922.53;4485691;31;20430;-76
2024/01/24 02:10:01;;;;;;;8.35;3.60;;;;;;;-2.18;100.00;99919.00;4485648;31;20093;-76
2024/01/24 02:12:28;;;;;;;9.88;3.33;;;;;;;-2.19;100.00;99922.44;4486151;31;20123;-76
2024/01/24 02:14:56;;;;;;;12.68;3.87;;;;;;;-2.14;100.00;99928.31;4485656;31;20442;-76
2024/01/24 02:17:23;;;;;;;9.05;3.62;;;;;;;-2.22;100.00;99921.66;4485738;31;20152;-76
2024/01/24 02:19:50;;;;;;;11.52;3.78;;;;;;;-2.23;100.00;99923.34;4499319;31;20590;-76
2024/01/24 02:22:17;;;;;;;9.18;4.18;;;;;;;-2.17;100.00;99914.69;4501879;31;20092;-76
2024/01/24 02:24:44;;;;;;;11.12;4.82;;;;;;;-2.14;100.00;99905.22;4501320;31;20415;-76
2024/01/24 02:27:11;;;;;;;8.02;3.80;;;;;;;-2.14;100.00;99906.94;4501434;31;20545;-76
2024/01/24 02:29:39;;;;;;;11.63;4.12;;;;;;;-2.04;100.00;99900.75;4498001;31;20100;-76
2024/01/24 02:32:18;;;;;;;12.48;4.22;;;;;;;-1.97;100.00;99896.34;4485610;31;20122;-76
2024/01/24 02:34:46;;;;;;;7.15;3.80;;;;;;;-1.98;100.00;99892.94;4485061;31;20130;-76
2024/01/24 02:37:15;;;;;;;7.30;3.22;;;;;;;-1.89;100.00;99896.19;4485578;31;20096;-76
2024/01/24 02:39:43;;;;;;;8.27;3.92;;;;;;;-1.81;100.00;99895.16;4485457;31;20105;-76
2024/01/24 02:42:11;;;;;;;11.85;3.42;;;;;;;-1.80;100.00;99883.19;4485506;31;20088;-76
2024/01/24 02:44:38;;;;;;;9.82;3.35;;;;;;;-1.82;100.00;99875.50;4483899;32;20092;-76
2024/01/24 02:47:06;;;;;;;7.10;3.58;;;;;;;-1.77;100.00;99872.84;4485870;31;20157;-76
2024/01/24 02:49:33;;;;;;;7.18;2.85;;;;;;;-1.80;100.00;99878.03;4485387;31;20123;-76
2024/01/24 02:52:02;;;;;;;6.82;3.25;;;;;;;-1.73;100.00;99874.44;4485422;32;20092;-76
2024/01/24 02:54:30;;;;;;;7.22;3.92;;;;;;;-1.74;100.00;99874.47;4485505;31;20093;-76
2024/01/24 02:56:58;;;;;;;6.47;3.17;;;;;;;-1.70;100.00;99889.78;4484486;32;20099;-76
2024/01/24 02:59:25;;;;;;;8.52;3.35;;;;;;;-1.66;100.00;99885.47;4485639;31;20097;-76
2024/01/24 03:01:53;;;;;;;8.05;2.78;;;;;;;-1.58;100.00;99882.72;4485412;31;20196;-76
2024/01/24 03:04:21;;;;;;;9.55;2.87;;;;;;;-1.49;100.00;99877.38;4485228;31;20137;-76
2024/01/24 03:06:49;;;;;;;8.93;2.67;;;;;;;-1.43;100.00;99875.50;4485165;31;20115;-76
2024/01/24 03:09:16;;;;;;;5.18;2.53;;;;;;;-1.35;100.00;99859.91;4485263;31;20179;-76
2024/01/24 03:11:44;;;;;;;7.53;2.50;;;;;;;-1.18;100.00;99861.25;4485195;31;20499;-76
2024/01/24 03:14:12;;;;;;;15.80;2.90;;;;;;;-1.09;100.00;99861.88;4485261;31;20100;-76
2024/01/24 03:16:39;;;;;;;5.12;2.15;;;;;;;-1.00;100.00;99858.25;4485438;31;20165;-76
2024/01/24 03:19:08;;;;;;;10.18;3.45;;;;;;;-0.87;100.00;99834.81;4494533;31;20095;-76
2024/01/24 03:21:35;;;;;;;7.57;2.20;;;;;;;-0.68;100.00;99830.88;4501061;31;20448;-76
2024/01/24 03:24:03;;;;;;;8.50;2.62;;;;;;;-0.65;100.00;99822.22;4500932;31;20118;-76
2024/01/24 03:26:30;;;;;;;7.53;2.47;;;;;;;-0.52;100.00;99820.19;4500926;31;20092;-76
2024/01/24 03:28:58;;;;;;;2.87;1.95;;;;;;;-0.35;100.00;99817.97;4500970;31;20129;-76
2024/01/24 03:31:25;;;;;;;6.15;2.10;;;;;;;-0.36;100.00;99811.16;4487280;31;20209;-76
2024/01/24 03:33:54;;;;;;;8.90;3.00;;;;;;;-0.35;100.00;99807.66;4485153;31;20514;-76
2024/01/24 03:36:21;;;;;;;6.47;2.00;;;;;;;-0.14;100.00;99805.38;4485213;32;20152;-76
2024/01/24 03:38:51;;;;;;;5.72;2.50;;;;;;;-0.10;100.00;99797.53;4485455;31;20145;-76
2024/01/24 03:41:18;;;;;;;5.45;2.60;;;;;;;-0.09;100.00;99796.66;4485008;31;20558;-75
2024/01/24 03:43:47;;;;;;;7.32;2.70;;;;;;;-0.12;100.00;99788.16;4484923;32;20243;-75
2024/01/24 03:46:19;;;;;;;13.10;3.22;;;;;;;0.01;100.00;99793.81;4484928;31;20480;-76
2024/01/24 03:48:47;;;;;;;6.62;2.60;;;;;;;0.03;100.00;99800.59;4485235;31;20442;-75
2024/01/24 03:51:15;;;;;;;6.47;2.75;;;;;;;0.04;100.00;99797.13;4485215;31;20541;-75
2024/01/24 03:53:43;;;;;;;6.28;2.70;;;;;;;0.19;100.00;99806.12;4485189;31;20171;-75
2024/01/24 03:56:10;;;;;;;7.18;2.45;;;;;;;0.13;100.00;99799.41;4483818;32;20100;-75
2024/01/24 03:58:38;;;;;;;8.10;2.25;;;;;;;0.12;100.00;99802.91;4485149;31;20118;-75
2024/01/24 04:01:06;;;;;;;5.32;2.55;;;;;;;0.14;100.00;99797.72;4485019;31;20088;-75
2024/01/24 04:03:34;;;;;;;5.78;3.05;;;;;;;0.14;100.00;99790.81;4484864;31;20123;-75
2024/01/24 04:06:02;;;;;;;10.80;3.05;;;;;;;0.17;100.00;99790.72;4484690;31;20092;-75
2024/01/24 04:08:29;;;;;;;7.82;3.15;;;;;;;0.11;100.00;99796.06;4484438;31;20442;-75
2024/01/24 04:10:58;;;;;;;6.60;2.92;;;;;;;0.14;100.00;99793.38;4484768;31;20157;-75
2024/01/24 04:13:25;;;;;;;6.00;2.50;;;;;;;0.06;100.00;99792.78;4484933;31;20156;-75
2024/01/24 04:15:53;;;;;;;8.20;3.15;;;;;;;0.09;100.00;99791.84;4484729;31;20149;-75
2024/01/24 04:18:20;;;;;;;8.02;3.03;;;;;;;0.19;100.00;99793.25;4488898;31;20108;-75
2024/01/24 04:20:48;;;;;;;6.95;2.95;;;;;;;0.10;100.00;99789.22;4500559;31;20116;-75
2024/01/24 04:23:15;;;;;;;9.10;2.83;;;;;;;0.08;100.00;99787.59;4501006;31;20089;-75
2024/01/24 04:25:44;;;;;;;4.30;2.00;;;;;;;0.03;100.00;99779.13;4500290;31;20088;-75
2024/01/24 04:28:12;;;;;;;7.28;2.30;;;;;;;0.15;100.00;99776.19;4500897;31;20127;-75
2024/01/24 04:30:39;;;;;;;5.72;2.25;;;;;;;0.31;100.00;99774.84;4491771;31;20092;-75
2024/01/24 04:33:07;;;;;;;5.28;2.08;;;;;;;0.42;100.00;99774.50;4484744;31;20088;-74
2024/01/24 04:35:36;;;;;;;5.80;1.80;;;;;;;0.54;100.00;99786.16;4484898;31;20209;-75
2024/01/24 04:38:04;;;;;;;8.95;2.50;;;;;;;0.66;100.00;99777.19;4485106;31;20483;-75
2024/01/24 04:40:32;;;;;;;8.43;2.55;;;;;;;0.83;100.00;99776.62;4484633;31;20103;-74
2024/01/24 04:42:59;;;;;;;4.62;2.17;;;;;;;0.80;100.00;99769.88;4484684;31;20093;-75
2024/01/24 04:45:27;;;;;;;4.72;2.10;;;;;;;0.80;100.00;99772.44;4484819;31;20144;-75
2024/01/24 04:47:55;;;;;;;6.20;2.28;;;;;;;0.79;100.00;99765.59;4484482;31;20138;-74
2024/01/24 04:50:23;;;;;;;7.97;1.95;;;;;;;0.84;100.00;99765.44;4484585;32;20141;-74
2024/01/24 04:52:51;;;;;;;12.27;2.75;;;;;;;0.86;100.00;99769.66;4484633;31;20096;-75
2024/01/24 04:55:18;;;;;;;7.93;2.35;;;;;;;0.92;100.00;99760.00;4484474;32;20164;-74
2024/01/24 04:57:46;;;;;;;5.25;2.20;;;;;;;0.95;100.00;99767.66;4484264;31;20093;-75
2024/01/24 05:00:13;;;;;;;9.23;2.40;;;;;;;0.93;100.00;99765.13;4484710;31;20110;-75
2024/01/24 05:02:40;;;;;;;5.15;2.58;;;;;;;0.95;100.00;99762.50;4484316;31;20096;-75
2024/01/24 05:05:10;;;;;;;5.75;2.25;;;;;;;0.90;100.00;99754.91;4484354;31;20092;-75
2024/01/24 05:07:37;;;;;;;9.75;2.50;;;;;;;0.92;100.00;99757.44;4484404;31;20389;-75
2024/01/24 05:10:05;;;;;;;7.18;2.67;;;;;;;0.86;100.00;99754.19;4484379;31;20438;-75
2024/01/24 05:12:33;;;;;;;14.60;2.80;;;;;;;0.87;100.00;99745.53;4484175;31;20530;-75
2024/01/24 05:15:00;;;;;;;8.48;3.00;;;;;;;0.91;100.00;99737.69;4484337;31;20126;-74
2024/01/24 05:17:28;;;;;;;9.27;3.03;;;;;;;0.90;100.00;99731.69;4483814;31;20088;-75
2024/01/24 05:19:55;;;;;;;7.43;3.12;;;;;;;0.83;100.00;99728.50;4498784;31;20179;-75
2024/01/24 05:22:22;;;;;;;8.63;3.45;;;;;;;0.86;100.00;99725.81;4502116;31;20129;-75
2024/01/24 05:24:49;;;;;;;11.32;3.08;;;;;;;1.01;100.00;99724.41;4501535;31;20103;-75
2024/01/24 05:27:16;;;;;;;8.77;3.53;;;;;;;0.96;100.00;99730.66;4501562;31;20480;-75
2024/01/24 05:29:45;;;;;;;7.75;4.12;;;;;;;0.98;100.00;99726.28;4501730;31;20092;-74
2024/01/24 05:32:13;;;;;;;6.03;2.75;;;;;;;1.15;100.00;99717.94;4501717;31;20101;-75
2024/01/24 05:34:41;;;;;;;5.47;2.83;;;;;;;1.26;100.00;99733.03;4501589;31;20172;-75
2024/01/24 05:37:08;;;;;;;8.15;3.58;;;;;;;1.22;100.00;99733.16;4501727;31;20130;-75
2024/01/24 05:39:36;;;;;;;5.32;3.03;;;;;;;1.12;100.00;99733.53;4501813;31;20459;-75
2024/01/24 05:42:03;;;;;;;5.10;2.58;;;;;;;1.07;100.00;99736.25;4501818;31;20091;-75
2024/01/24 05:44:30;;;;;;;10.52;4.20;;;;;;;1.11;100.00;99732.69;4501437;31;20147;-74
2024/01/24 05:46:57;;;;;;;7.95;2.60;;;;;;;1.20;100.00;99737.53;4501353;31;20095;-74
2024/01/24 05:49:24;;;;;;;12.63;2.72;;;;;;;1.32;100.00;99743.16;4501756;31;20143;-74
2024/01/24 05:51:52;;;;;;;5.65;2.20;;;;;;;1.29;100.00;99738.09;4501579;31;20111;-74
2024/01/24 05:54:19;;;;;;;6.15;2.72;;;;;;;1.24;100.00;99733.09;4501765;31;20127;-75
2024/01/24 05:56:46;;;;;;;6.35;2.80;;;;;;;1.29;100.00;99731.22;4501084;31;20129;-74
2024/01/24 05:59:13;;;;;;;6.03;2.60;;;;;;;1.24;100.00;99731.38;4495760;31;20144;-74
2024/01/24 06:01:43;;;;;;;9.40;3.67;;;;;;;1.16;100.00;99728.19;4488000;31;20088;-75
2024/01/24 06:04:11;;;;;;;7.37;2.92;;;;;;;1.18;100.00;99729.00;4486512;31;20104;-75
2024/01/24 06:06:42;;;;;;;10.55;3.42;;;;;;;1.19;100.00;99738.41;4485799;32;20100;-75
2024/01/24 06:09:09;;;;;;;5.85;2.67;;;;;;;1.13;100.00;99736.06;4490267;31;20095;-74
2024/01/24 06:11:37;;;;;;;7.37;2.75;;;;;;;1.23;100.00;99741.75;4497937;31;20137;-76
2024/01/24 06:14:04;;;;;;;8.30;2.85;;;;;;;1.26;100.00;99745.94;4492392;31;20153;-76
2024/01/24 06:16:31;;;;;;;6.00;3.28;;;;;;;1.14;100.00;99732.59;4499565;31;20152;-75
2024/01/24 06:18:58;;;;;;;7.40;3.28;;;;;;;1.14;100.00;99726.59;4493405;31;20099;-76
2024/01/24 06:21:25;;;;;;;8.07;3.08;;;;;;;1.15;100.00;99728.25;4498907;31;20163;-75
2024/01/24 06:23:53;;;;;;;14.07;3.30;;;;;;;1.16;100.00;99715.28;4501480;31;20150;-76
2024/01/24 06:26:20;;;;;;;10.68;3.12;;;;;;;1.11;100.00;99719.78;4500946;31;20541;-76
2024/01/24 06:28:47;;;;;;;9.07;3.20;;;;;;;1.10;100.00;99714.69;4490858;31;20092;-76
2024/01/24 06:31:15;;;;;;;7.25;2.90;;;;;;;1.14;100.00;99709.34;4490492;31;20115;-76
2024/01/24 06:33:42;;;;;;;8.68;3.30;;;;;;;1.15;100.00;99698.16;4495993;31;20126;-75
2024/01/24 06:36:09;;;;;;;9.93;3.33;;;;;;;1.13;100.00;99689.59;4487410;31;78002;-75
2024/01/24 06:38:36;;;;;;;8.88;3.83;;;;;;;1.19;100.00;99670.47;4497722;31;20092;-75
2024/01/24 06:41:03;;;;;;;10.07;3.50;;;;;;;1.12;100.00;99656.97;4497245;31;20536;-75
2024/01/24 06:43:32;;;;;;;6.12;3.12;;;;;;;1.11;100.00;99669.94;4497479;31;20196;-76
2024/01/24 06:46:02;;;;;;;15.38;3.53;;;;;;;1.08;100.00;99670.88;4497599;31;20111;-75
2024/01/24 06:48:30;;;;;;;6.57;3.17;;;;;;;1.08;100.00;99655.38;4494151;31;20096;-75
2024/01/24 06:50:58;;;;;;;7.40;4.07;;;;;;;1.04;100.00;99652.06;4492861;31;20096;-75
2024/01/24 06:53:26;;;;;;;10.15;4.60;;;;;;;1.08;100.00;99645.06;4485424;31;20121;-75
2024/01/24 06:55:56;;;;;;;9.32;3.72;;;;;;;1.15;100.00;99646.53;4494460;31;20115;-76
2024/01/24 06:58:23;;;;;;;8.88;3.25;;;;;;;1.27;100.00;99639.22;4490939;31;20093;-75
2024/01/24 07:00:50;;;;;;;9.57;3.97;;;;;;;1.26;100.00;99620.31;4497356;31;20122;-74
2024/01/24 07:03:18;;;;;;;9.63;4.28;;;;;;;1.41;100.00;99630.06;4498592;31;20095;-75
2024/01/24 07:05:51;;;;;;;9.77;5.07;;;;;;;1.37;100.00;99628.50;4486596;31;20153;-76
2024/01/24 07:08:18;;;;;;;11.15;5.28;;;;;;;1.38;100.00;99614.69;4486176;31;20097;-74
2024/01/24 07:10:45;;;;;;;12.15;5.05;;;;;;;1.42;100.00;99624.00;4492632;31;20163;-74
2024/01/24 07:13:12;;;;;;;14.05;4.85;;;;;;;1.40;100.00;99609.47;4497147;31;20125;-75
2024/01/24 07:15:39;;;;;;;11.38;4.75;;;;;;;1.39;100.00;99605.19;4496771;31;20092;-74
2024/01/24 07:18:07;;;;;;;12.60;4.50;;;;;;;1.44;100.00;99613.63;4499793;31;20440;-75
2024/01/24 07:20:34;;;;;;;11.88;4.82;;;;;;;1.37;100.00;99604.44;4492076;31;20163;-75
2024/01/24 07:23:02;;;;;;;9.82;4.70;;;;;;;1.53;100.00;99604.66;4489299;31;20259;-75
2024/01/24 07:25:33;;;;;;;14.90;5.65;;;;;;;1.55;100.00;99613.22;4491624;31;20084;-73
2024/01/24 07:28:01;;;;;;;9.52;4.35;;;;;;;1.64;100.00;99602.53;4487686;31;20167;-74
2024/01/24 07:30:29;;;;;;;13.00;4.90;;;;;;;1.61;100.00;99594.06;4491214;31;20120;-75
2024/01/24 07:32:57;;;;;;;10.30;4.95;;;;;;;1.66;100.00;99595.53;4485534;31;20125;-76
2024/01/24 07:35:24;;;;;;;10.75;5.15;;;;;;;1.76;100.00;99585.72;4488352;31;20160;-74
2024/01/24 07:37:52;;;;;;;10.52;4.95;;;;;;;1.84;100.00;99583.66;4485707;31;20147;-75
2024/01/24 07:40:21;;;;;;;9.60;4.90;;;;;;;1.75;100.00;99589.19;4488656;31;20107;-75
2024/01/24 07:42:50;;;;;;;14.65;5.75;;;;;;;1.82;100.00;99582.00;4489278;31;20557;-74
2024/01/24 07:45:18;;;;;;;11.98;6.00;;;;;;;1.86;100.00;99574.09;4496809;31;20088;-75
2024/01/24 07:47:47;;;;;;;12.57;5.90;;;;;;;1.90;100.00;99580.81;4494003;31;20100;-76
2024/01/24 07:50:15;;;;;;;12.07;5.55;;;;;;;1.91;100.00;99582.50;4491933;31;20159;-75
2024/01/24 07:52:43;;;;;;;11.05;5.43;;;;;;;2.00;100.00;99585.59;4487971;31;20129;-76
2024/01/24 07:55:13;;;;;;;14.05;6.30;;;;;;;2.03;100.00;99583.75;4495634;31;20109;-74
2024/01/24 07:57:42;;;;;;;15.88;6.25;;;;;;;2.09;100.00;99577.47;4491772;31;20578;-76
2024/01/24 08:00:16;;;;;;;12.85;5.53;;;;;;;2.15;100.00;99586.72;4496840;31;20100;-76
2024/01/24 08:02:46;;;;;;;13.68;6.05;;;;;;;2.16;100.00;99578.06;4498603;31;20789;-75
2024/01/24 08:05:18;;;;;;;13.88;5.93;;;;;;;2.12;100.00;99567.03;4497818;31;20124;-75
2024/01/24 08:07:47;;;;;;;14.32;5.85;;;;;;;2.09;100.00;99568.00;4494651;31;20100;-76
2024/01/24 08:10:16;;;;;;;12.40;6.25;;;;;;;2.11;100.00;99580.84;4485042;31;20118;-76
2024/01/24 08:12:59;;;;;;;16.48;6.50;;;;;;;2.10;100.00;99579.16;4495362;31;20092;-76
2024/01/24 08:15:27;;;;;;;9.82;5.55;;;;;;;2.09;100.00;99572.28;4485880;31;20152;-75
2024/01/24 08:17:54;;;;;;;12.23;5.65;;;;;;;2.03;100.00;99588.91;4485482;31;20169;-75
2024/01/24 08:20:24;;;;;;;13.30;6.75;;;;;;;1.99;100.00;99586.53;4499282;31;20178;-78
2024/01/24 08:22:51;;;;;;;12.65;6.65;;;;;;;1.91;100.00;99574.75;4495062;31;20112;-76
2024/01/24 08:25:22;;;;;;;12.35;6.03;;;;;;;1.85;100.00;99571.59;4490920;31;20114;-75
2024/01/24 08:27:50;;;;;;;17.35;6.90;;;;;;;1.85;100.00;99569.84;4490212;31;20482;-77
2024/01/24 08:30:21;;;;;;;11.30;6.62;;;;;;;1.85;100.00;99564.66;4496047;31;20079;-77
2024/01/24 08:32:48;;;;;;;14.20;6.97;;;;;;;1.91;100.00;99574.75;4500078;31;20205;-76
2024/01/24 08:35:16;;;;;;;13.02;6.95;;;;;;;1.81;100.00;99551.94;4487040;31;20076;-75
2024/01/24 08:37:43;;;;;;;16.60;7.35;;;;;;;1.77;100.00;99566.69;4489958;31;20168;-77
2024/01/24 08:40:17;;;;;;;15.10;7.62;;;;;;;1.86;100.00;99561.19;4491458;31;20106;-78
2024/01/24 08:42:45;;;;;;;16.50;7.55;;;;;;;1.84;100.00;99560.38;4490432;31;20101;-74
2024/01/24 08:45:13;;;;;;;22.20;8.10;;;;;;;1.84;100.00;99552.63;4493199;31;20084;-74
2024/01/24 08:47:43;;;;;;;14.27;7.35;;;;;;;1.80;100.00;99553.66;4495226;31;20152;-75
2024/01/24 08:50:11;;;;;;;15.63;6.97;;;;;;;1.85;100.00;99562.09;4492116;31;20127;-76
2024/01/24 08:52:38;;;;;;;14.27;7.30;;;;;;;1.97;100.00;99557.31;4493173;31;20108;-76
2024/01/24 08:55:13;;;;;;;17.10;7.95;;;;;;;2.04;100.00;99548.41;4490528;31;20176;-74
2024/01/24 08:57:42;;;;;;;15.55;7.53;;;;;;;1.97;100.00;99541.78;4487348;31;20103;-74
2024/01/24 09:00:12;;;;;;;16.15;7.22;;;;;;;1.98;100.00;99533.16;4488407;31;20096;-74
2024/01/24 09:02:40;;;;;;;14.48;7.68;;;;;;;1.97;100.00;99519.41;4483340;31;20104;-72
2024/01/24 09:05:18;;;;;;;12.32;7.22;;;;;;;1.94;100.00;99507.44;4486912;31;20111;-75
2024/01/24 09:07:46;;;;;;;18.87;7.90;;;;;;;1.88;100.00;99512.87;4493162;31;20097;-74
2024/01/24 09:10:13;;;;;;;15.13;7.05;;;;;;;1.90;100.00;99510.22;4489342;31;20084;-73
2024/01/24 09:12:40;;;;;;;14.45;7.05;;;;;;;1.94;100.00;99514.38;4490317;31;20120;-72
2024/01/24 09:15:09;;;;;;;14.15;6.75;;;;;;;1.96;100.00;99497.03;4494281;31;20108;-73
2024/01/24 09:17:37;;;;;;;11.48;6.25;;;;;;;1.95;100.00;99480.72;4495466;31;20092;-72
2024/01/24 09:20:06;;;;;;;11.02;5.97;;;;;;;1.85;100.00;99487.16;4496669;31;20088;-72
2024/01/24 09:22:34;;;;;;;15.45;7.03;;;;;;;1.83;100.00;99488.94;4496712;31;20135;-72
2024/01/24 09:25:01;;;;;;;14.13;7.53;;;;;;;1.99;100.00;99489.16;4495444;31;20126;-72
2024/01/24 09:27:34;;;;;;;14.05;6.53;;;;;;;2.14;100.00;99482.50;4486136;31;20096;-74
2024/01/24 09:30:03;;;;;;;15.73;8.48;;;;;;;2.09;100.00;99479.25;4489180;31;20114;-74
2024/01/24 09:32:31;;;;;;;16.45;7.57;;;;;;;2.18;100.00;99490.94;4485730;31;20136;-74
2024/01/24 09:34:58;;;;;;;12.60;6.30;;;;;;;2.24;100.00;99483.78;4495016;31;20096;-72
2024/01/24 09:37:27;;;;;;;12.48;6.60;;;;;;;2.15;100.00;99458.34;4492853;31;20623;-73
2024/01/24 09:39:54;;;;;;;14.38;6.47;;;;;;;2.14;100.00;99464.41;4487847;31;20141;-74
2024/01/24 09:42:26;;;;;;;12.95;6.28;;;;;;;2.22;100.00;99462.31;4492663;31;20126;-74
2024/01/24 09:44:57;;;;;;;11.85;6.22;;;;;;;2.11;100.00;99465.38;4493253;31;20100;-73
2024/01/24 09:47:29;;;;;;;14.23;5.82;;;;;;;2.04;100.00;99466.53;4486257;31;20515;-73
2024/01/24 09:49:59;;;;;;;10.70;6.35;;;;;;;2.05;100.00;99444.97;4484293;31;20088;-74
2024/01/24 09:52:27;;;;;;;11.90;6.12;;;;;;;2.09;100.00;99448.25;4483023;31;20115;-74
2024/01/24 09:55:04;;;;;;;12.70;6.30;;;;;;;2.29;100.00;99455.16;4487742;31;20461;-74
2024/01/24 09:57:33;;;;;;;10.38;5.47;;;;;;;2.32;100.00;99434.31;4486745;31;20507;-74
2024/01/24 10:00:02;;;;;;;11.73;6.05;;;;;;;2.46;100.00;99433.69;4491280;31;20106;-73
2024/01/24 10:02:30;;;;;;;11.45;5.50;;;;;;;2.44;100.00;99431.19;4487560;31;20093;-73
2024/01/24 10:04:59;;;;;;;14.05;5.40;;;;;;;2.39;100.00;99404.72;4488859;31;20100;-74
2024/01/24 10:07:26;;;;;;;12.80;5.72;;;;;;;2.39;100.00;99394.38;4498095;31;20142;-74
2024/01/24 10:10:07;;;;;;;10.60;5.62;;;;;;;2.43;100.00;99382.13;4493774;31;20133;-74
2024/01/24 10:12:35;;;;;;;15.65;5.95;;;;;;;2.61;100.00;99385.59;4487757;31;20579;-74
2024/01/24 10:15:02;;;;;;;8.75;5.22;;;;;;;2.77;100.00;99389.16;4495037;31;20200;-73
2024/01/24 10:17:41;;;;;;;9.43;4.72;;;;;;;2.76;100.00;99371.13;4496624;31;20174;-73
2024/01/24 10:20:11;;;;;;;11.40;4.97;;;;;;;2.79;100.00;99365.78;4489709;31;20088;-75
2024/01/24 10:22:39;;;;;;;8.70;4.62;;;;;;;2.80;100.00;99347.63;4497533;31;20088;-74
2024/01/24 10:25:09;;;;;;;8.95;4.90;;;;;;;2.71;100.00;99337.72;4497063;31;20118;-74
2024/01/24 10:27:39;;;;;;;8.38;4.53;;;;;;;2.65;100.00;99333.66;4496500;31;20111;-73
2024/01/24 10:30:11;;;;;;;12.18;4.90;;;;;;;2.64;100.00;99328.56;4493305;31;20119;-72
2024/01/24 10:32:47;;;;;;;11.18;4.85;;;;;;;2.75;100.00;99330.63;4493806;31;20476;-73
2024/01/24 10:35:15;;;;;;;10.05;3.95;;;;;;;2.79;100.00;99322.63;4485500;31;20522;-73
2024/01/24 10:37:44;;;;;;;10.77;5.18;;;;;;;2.67;100.00;99331.00;4484539;32;20096;-76
2024/01/24 10:40:14;;;;;;;8.40;4.60;;;;;;;2.69;100.00;99330.91;4482070;32;20470;-74
2024/01/24 10:42:53;;;;;;;9.35;4.50;;;;;;;2.59;100.00;99328.78;4479730;32;20105;-75
2024/01/24 10:45:22;;;;;;;9.73;4.72;;;;;;;2.49;100.00;99301.66;4480991;32;20115;-73
2024/01/24 10:47:52;;;;;;;10.45;4.50;;;;;;;2.59;100.00;99302.06;4465903;32;20099;-73
2024/01/24 10:50:20;;;;;;;9.60;4.35;;;;;;;2.62;100.00;99302.75;4477673;32;20111;-74
2024/01/24 10:52:54;;;;;;;7.93;4.28;;;;;;;2.57;100.00;99303.88;4461433;32;20462;-77
2024/01/24 10:55:23;;;;;;;12.07;4.20;;;;;;;2.65;100.00;99307.78;4473844;32;20100;-77
2024/01/24 10:57:50;;;;;;;8.45;4.22;;;;;;;2.71;100.00;99300.63;4477419;32;20450;-77
2024/01/24 11:00:19;;;;;;;9.73;4.53;;;;;;;2.59;100.00;99282.22;4468252;32;20542;-77
2024/01/24 11:02:46;;;;;;;9.05;4.37;;;;;;;2.66;100.00;99268.09;4478566;32;20101;-76
2024/01/24 11:05:20;;;;;;;9.85;4.60;;;;;;;2.69;100.00;99261.91;4479315;32;20201;-76
2024/01/24 11:08:00;;;;;;;10.02;4.03;;;;;;;2.82;100.00;99262.16;4461251;32;20505;-75
2024/01/24 11:10:34;;;;;;;8.77;4.00;;;;;;;2.87;100.00;99242.03;4463625;32;20072;-75
2024/01/24 11:13:07;;;;;;;9.38;3.97;;;;;;;2.89;100.00;99229.84;4465056;32;20108;-75
2024/01/24 11:15:34;;;;;;;9.10;4.50;;;;;;;2.90;100.00;99220.38;4476205;32;20630;-75
2024/01/24 11:18:22;;;;;;;9.27;4.75;;;;;;;2.91;100.00;99217.69;4482628;32;20093;-75
2024/01/24 11:20:55;;;;;;;7.35;3.97;;;;;;;2.95;100.00;99195.94;4484343;32;20434;-77
2024/01/24 11:23:40;;;;;;;8.00;3.85;;;;;;;3.01;100.00;99200.78;4480485;32;20100;-75
2024/01/24 11:26:09;;;;;;;7.07;3.83;;;;;;;3.12;100.00;99201.97;4483188;32;20390;-76
2024/01/24 11:28:38;;;;;;;8.60;3.87;;;;;;;3.24;100.00;99198.78;4468375;32;20150;-76
2024/01/24 11:31:07;;;;;;;8.30;4.07;;;;;;;3.33;100.00;99195.69;4479701;32;20515;-75
2024/01/24 11:33:35;;;;;;;13.75;4.50;;;;;;;3.40;100.00;99172.06;4462982;32;20176;-75